sensor_id;sensor_type;location;lat;lon;timestamp;noise_LAeq;noise_LA_min;noise_LA_max;noise_LA01;noise_LA95
70454;Laerm;57915;47.174;14.680;2023-03-20T00:00:41;40.91;39.03;44.30;;
70454;Laerm;57915;47.174;14.680;2023-03-20T00:01:43;41.21;39.56;46.72;;
70454;Laerm;57915;47.174;14.680;2023-03-20T00:02:44;41.45;39.95;44.33;;
70454;Laerm;57915;47.174;14.680;2023-03-20T00:03:45;41.32;39.97;43.24;;
70454;Laerm;57915;47.174;14.680;2023-03-20T00:04:47;41.17;39.74;43.42;;
70454;Laerm;57915;47.174;14.680;2023-03-20T00:05:47;54.47;39.90;67.05;;
70454;Laerm;57915;47.174;14.680;2023-03-20T00:06:50;40.85;39.32;43.51;;
70454;Laerm;57915;47.174;14.680;2023-03-20T00:07:51;40.53;39.43;41.76;;
70454;Laerm;57915;47.174;14.680;2023-03-20T00:08:54;40.96;39.50;43.82;;
70454;Laerm;57915;47.174;14.680;2023-03-20T00:09:56;40.53;39.36;42.87;;
70454;Laerm;57915;47.174;14.680;2023-03-20T00:10:57;40.33;39.22;42.07;;
70454;Laerm;57915;47.174;14.680;2023-03-20T00:11:58;41.39;40.05;44.06;;
70454;Laerm;57915;47.174;14.680;2023-03-20T00:13:00;41.38;39.98;45.32;;
70454;Laerm;57915;47.174;14.680;2023-03-20T00:14:02;40.86;39.64;42.76;;
70454;Laerm;57915;47.174;14.680;2023-03-20T00:15:05;40.78;39.48;43.08;;
70454;Laerm;57915;47.174;14.680;2023-03-20T00:16:07;40.66;39.28;42.53;;
70454;Laerm;57915;47.174;14.680;2023-03-20T00:17:09;40.61;39.35;43.77;;
70454;Laerm;57915;47.174;14.680;2023-03-20T00:18:13;41.37;39.79;46.86;;
70454;Laerm;57915;47.174;14.680;2023-03-20T00:19:17;40.57;39.27;43.56;;
70454;Laerm;57915;47.174;14.680;2023-03-20T00:20:18;40.85;39.58;42.40;;
70454;Laerm;57915;47.174;14.680;2023-03-20T00:21:20;40.61;39.24;43.19;;
70454;Laerm;57915;47.174;14.680;2023-03-20T00:22:20;40.41;39.13;42.75;;
70454;Laerm;57915;47.174;14.680;2023-03-20T00:23:22;40.72;39.29;46.98;;
70454;Laerm;57915;47.174;14.680;2023-03-20T00:24:24;40.47;39.26;42.28;;
70454;Laerm;57915;47.174;14.680;2023-03-20T00:25:25;40.70;39.06;43.66;;
70454;Laerm;57915;47.174;14.680;2023-03-20T00:26:29;58.17;39.39;70.56;;
70454;Laerm;57915;47.174;14.680;2023-03-20T00:27:33;40.63;39.32;43.63;;
70454;Laerm;57915;47.174;14.680;2023-03-20T00:28:35;54.62;39.26;67.23;;
70454;Laerm;57915;47.174;14.680;2023-03-20T00:29:39;40.49;39.39;41.75;;
70454;Laerm;57915;47.174;14.680;2023-03-20T00:30:40;40.66;39.09;42.43;;
70454;Laerm;57915;47.174;14.680;2023-03-20T00:31:42;40.85;39.35;43.20;;
70454;Laerm;57915;47.174;14.680;2023-03-20T00:32:42;40.86;39.48;42.81;;
70454;Laerm;57915;47.174;14.680;2023-03-20T00:33:44;40.87;39.72;42.19;;
70454;Laerm;57915;47.174;14.680;2023-03-20T00:34:44;40.84;39.65;42.76;;
70454;Laerm;57915;47.174;14.680;2023-03-20T00:35:46;47.55;39.56;55.12;;
70454;Laerm;57915;47.174;14.680;2023-03-20T00:36:46;46.14;42.41;52.57;;
70454;Laerm;57915;47.174;14.680;2023-03-20T00:37:48;42.59;39.97;46.23;;
70454;Laerm;57915;47.174;14.680;2023-03-20T00:38:49;40.82;39.61;42.45;;
70454;Laerm;57915;47.174;14.680;2023-03-20T00:39:52;41.91;40.14;44.59;;
70454;Laerm;57915;47.174;14.680;2023-03-20T00:40:52;59.14;39.74;73.40;;
70454;Laerm;57915;47.174;14.680;2023-03-20T00:41:54;40.94;39.55;46.07;;
70454;Laerm;57915;47.174;14.680;2023-03-20T00:42:58;54.58;39.78;66.98;;
70454;Laerm;57915;47.174;14.680;2023-03-20T00:44:01;41.09;39.64;44.19;;
70454;Laerm;57915;47.174;14.680;2023-03-20T00:45:02;41.09;39.44;42.88;;
70454;Laerm;57915;47.174;14.680;2023-03-20T00:46:05;40.25;39.19;41.30;;
70454;Laerm;57915;47.174;14.680;2023-03-20T00:47:09;40.19;38.93;44.02;;
70454;Laerm;57915;47.174;14.680;2023-03-20T00:48:12;40.23;39.02;42.25;;
70454;Laerm;57915;47.174;14.680;2023-03-20T00:49:13;40.79;39.60;42.15;;
70454;Laerm;57915;47.174;14.680;2023-03-20T00:50:16;40.39;39.13;41.45;;
70454;Laerm;57915;47.174;14.680;2023-03-20T00:51:17;40.72;39.42;44.24;;
70454;Laerm;57915;47.174;14.680;2023-03-20T00:52:20;40.94;39.73;42.68;;
70454;Laerm;57915;47.174;14.680;2023-03-20T00:53:20;41.70;39.93;44.88;;
70454;Laerm;57915;47.174;14.680;2023-03-20T00:54:22;40.93;39.43;43.14;;
70454;Laerm;57915;47.174;14.680;2023-03-20T00:55:25;40.39;39.14;42.20;;
70454;Laerm;57915;47.174;14.680;2023-03-20T00:56:29;41.48;39.95;43.74;;
70454;Laerm;57915;47.174;14.680;2023-03-20T00:57:32;46.92;41.84;52.62;;
70454;Laerm;57915;47.174;14.680;2023-03-20T00:58:37;42.78;40.59;45.55;;
70454;Laerm;57915;47.174;14.680;2023-03-20T00:59:38;40.81;39.37;42.85;;
70454;Laerm;57915;47.174;14.680;2023-03-20T01:00:40;40.88;39.69;42.24;;
70454;Laerm;57915;47.174;14.680;2023-03-20T01:01:42;40.75;39.31;43.55;;
70454;Laerm;57915;47.174;14.680;2023-03-20T01:02:43;41.26;39.62;43.83;;
70454;Laerm;57915;47.174;14.680;2023-03-20T01:03:44;41.82;39.90;45.68;;
70454;Laerm;57915;47.174;14.680;2023-03-20T01:04:45;40.83;39.64;42.54;;
70454;Laerm;57915;47.174;14.680;2023-03-20T01:05:48;41.05;39.79;42.87;;
70454;Laerm;57915;47.174;14.680;2023-03-20T01:06:49;41.16;39.92;42.50;;
70454;Laerm;57915;47.174;14.680;2023-03-20T01:07:51;41.58;40.16;44.80;;
70454;Laerm;57915;47.174;14.680;2023-03-20T01:08:52;41.79;40.19;47.68;;
70454;Laerm;57915;47.174;14.680;2023-03-20T01:09:56;41.33;40.01;43.71;;
70454;Laerm;57915;47.174;14.680;2023-03-20T01:10:58;41.74;39.56;56.65;;
70454;Laerm;57915;47.174;14.680;2023-03-20T01:12:00;42.13;39.88;45.01;;
70454;Laerm;57915;47.174;14.680;2023-03-20T01:13:01;41.09;39.52;42.80;;
70454;Laerm;57915;47.174;14.680;2023-03-20T01:14:03;40.33;39.04;42.36;;
70454;Laerm;57915;47.174;14.680;2023-03-20T01:15:06;40.02;39.00;42.01;;
70454;Laerm;57915;47.174;14.680;2023-03-20T01:16:17;39.86;38.88;41.51;;
70454;Laerm;57915;47.174;14.680;2023-03-20T01:17:19;55.98;39.00;69.24;;
70454;Laerm;57915;47.174;14.680;2023-03-20T01:18:21;40.10;39.04;42.22;;
70454;Laerm;57915;47.174;14.680;2023-03-20T01:19:23;39.89;38.91;41.31;;
70454;Laerm;57915;47.174;14.680;2023-03-20T01:20:24;41.09;38.97;50.69;;
70454;Laerm;57915;47.174;14.680;2023-03-20T01:21:26;40.08;38.51;47.77;;
70454;Laerm;57915;47.174;14.680;2023-03-20T01:22:27;39.71;38.64;42.93;;
70454;Laerm;57915;47.174;14.680;2023-03-20T01:23:28;40.57;38.58;47.55;;
70454;Laerm;57915;47.174;14.680;2023-03-20T01:24:29;40.15;38.71;46.69;;
70454;Laerm;57915;47.174;14.680;2023-03-20T01:25:30;39.99;38.61;42.17;;
70454;Laerm;57915;47.174;14.680;2023-03-20T01:26:33;39.32;38.42;40.68;;
70454;Laerm;57915;47.174;14.680;2023-03-20T01:27:36;39.29;38.46;40.53;;
70454;Laerm;57915;47.174;14.680;2023-03-20T01:28:36;39.43;38.50;40.30;;
70454;Laerm;57915;47.174;14.680;2023-03-20T01:29:38;39.74;38.87;40.86;;
70454;Laerm;57915;47.174;14.680;2023-03-20T01:30:38;39.87;38.78;40.85;;
70454;Laerm;57915;47.174;14.680;2023-03-20T01:31:40;39.84;38.87;41.33;;
70454;Laerm;57915;47.174;14.680;2023-03-20T01:32:41;39.70;38.82;41.29;;
70454;Laerm;57915;47.174;14.680;2023-03-20T01:33:43;40.13;38.77;47.70;;
70454;Laerm;57915;47.174;14.680;2023-03-20T01:34:43;39.67;38.71;41.98;;
70454;Laerm;57915;47.174;14.680;2023-03-20T01:35:46;39.59;38.72;40.83;;
70454;Laerm;57915;47.174;14.680;2023-03-20T01:36:49;39.47;38.72;40.98;;
70454;Laerm;57915;47.174;14.680;2023-03-20T01:37:50;39.65;38.60;41.99;;
70454;Laerm;57915;47.174;14.680;2023-03-20T01:38:53;40.07;38.85;42.87;;
70454;Laerm;57915;47.174;14.680;2023-03-20T01:39:54;39.63;38.70;41.67;;
70454;Laerm;57915;47.174;14.680;2023-03-20T01:40:56;39.89;38.73;42.15;;
70454;Laerm;57915;47.174;14.680;2023-03-20T01:42:00;39.65;38.78;45.07;;
70454;Laerm;57915;47.174;14.680;2023-03-20T01:43:04;39.53;38.72;40.58;;
70454;Laerm;57915;47.174;14.680;2023-03-20T01:44:14;39.77;38.68;45.57;;
70454;Laerm;57915;47.174;14.680;2023-03-20T01:45:18;39.55;38.44;43.20;;
70454;Laerm;57915;47.174;14.680;2023-03-20T01:46:22;39.95;38.68;46.33;;
70454;Laerm;57915;47.174;14.680;2023-03-20T01:47:25;57.27;38.57;70.50;;
70454;Laerm;57915;47.174;14.680;2023-03-20T01:48:30;55.85;38.76;70.55;;
70454;Laerm;57915;47.174;14.680;2023-03-20T01:50:54;40.48;39.05;44.10;;
70454;Laerm;57915;47.174;14.680;2023-03-20T01:51:56;40.33;39.05;43.72;;
70454;Laerm;57915;47.174;14.680;2023-03-20T01:53:02;40.21;39.03;42.43;;
70454;Laerm;57915;47.174;14.680;2023-03-20T01:54:06;39.85;38.77;43.73;;
70454;Laerm;57915;47.174;14.680;2023-03-20T01:55:08;40.00;38.92;42.12;;
70454;Laerm;57915;47.174;14.680;2023-03-20T01:56:09;40.18;39.03;49.59;;
70454;Laerm;57915;47.174;14.680;2023-03-20T01:57:13;40.80;38.97;43.45;;
70454;Laerm;57915;47.174;14.680;2023-03-20T01:58:18;41.09;39.05;44.91;;
70454;Laerm;57915;47.174;14.680;2023-03-20T01:59:21;40.66;39.36;48.31;;
70454;Laerm;57915;47.174;14.680;2023-03-20T02:00:24;40.50;39.02;46.33;;
70454;Laerm;57915;47.174;14.680;2023-03-20T02:01:25;40.47;38.97;47.24;;
70454;Laerm;57915;47.174;14.680;2023-03-20T02:02:28;40.12;39.01;46.46;;
70454;Laerm;57915;47.174;14.680;2023-03-20T02:03:29;40.34;38.82;49.79;;
70454;Laerm;57915;47.174;14.680;2023-03-20T02:04:32;40.59;39.00;48.05;;
70454;Laerm;57915;47.174;14.680;2023-03-20T02:05:34;39.92;38.49;42.34;;
70454;Laerm;57915;47.174;14.680;2023-03-20T02:06:36;40.43;38.80;45.22;;
70454;Laerm;57915;47.174;14.680;2023-03-20T02:07:37;39.77;38.60;41.45;;
70454;Laerm;57915;47.174;14.680;2023-03-20T02:08:39;40.04;38.79;45.30;;
70454;Laerm;57915;47.174;14.680;2023-03-20T02:09:41;39.86;38.90;44.46;;
70454;Laerm;57915;47.174;14.680;2023-03-20T02:10:43;39.92;38.88;43.11;;
70454;Laerm;57915;47.174;14.680;2023-03-20T02:11:44;41.32;39.11;46.79;;
70454;Laerm;57915;47.174;14.680;2023-03-20T02:12:48;54.48;38.62;66.15;;
70454;Laerm;57915;47.174;14.680;2023-03-20T02:13:48;40.08;38.63;44.97;;
70454;Laerm;57915;47.174;14.680;2023-03-20T02:14:51;39.95;38.64;43.56;;
70454;Laerm;57915;47.174;14.680;2023-03-20T02:15:56;40.24;38.65;44.02;;
70454;Laerm;57915;47.174;14.680;2023-03-20T02:16:58;40.12;38.61;45.29;;
70454;Laerm;57915;47.174;14.680;2023-03-20T02:17:58;39.52;38.56;41.47;;
70454;Laerm;57915;47.174;14.680;2023-03-20T02:19:00;39.99;38.76;45.54;;
70454;Laerm;57915;47.174;14.680;2023-03-20T02:20:03;39.70;38.54;42.57;;
70454;Laerm;57915;47.174;14.680;2023-03-20T02:21:15;39.43;38.45;43.47;;
70454;Laerm;57915;47.174;14.680;2023-03-20T02:22:32;39.43;38.23;41.14;;
70454;Laerm;57915;47.174;14.680;2023-03-20T02:25:09;43.77;38.21;58.29;;
70454;Laerm;57915;47.174;14.680;2023-03-20T02:26:18;39.17;38.22;42.27;;
70454;Laerm;57915;47.174;14.680;2023-03-20T02:27:22;39.23;38.34;41.33;;
70454;Laerm;57915;47.174;14.680;2023-03-20T02:28:39;39.52;38.42;47.46;;
70454;Laerm;57915;47.174;14.680;2023-03-20T02:31:19;40.39;38.64;46.20;;
70454;Laerm;57915;47.174;14.680;2023-03-20T02:34:02;51.17;39.35;64.57;;
70454;Laerm;57915;47.174;14.680;2023-03-20T02:35:09;54.72;45.68;62.55;;
70454;Laerm;57915;47.174;14.680;2023-03-20T02:39:05;40.27;38.83;42.77;;
70454;Laerm;57915;47.174;14.680;2023-03-20T02:40:10;40.07;38.94;42.46;;
70454;Laerm;57915;47.174;14.680;2023-03-20T02:41:18;40.76;39.11;44.11;;
70454;Laerm;57915;47.174;14.680;2023-03-20T02:42:24;42.08;39.85;46.27;;
70454;Laerm;57915;47.174;14.680;2023-03-20T02:43:31;40.89;39.44;43.32;;
70454;Laerm;57915;47.174;14.680;2023-03-20T02:44:37;41.05;39.74;45.39;;
70454;Laerm;57915;47.174;14.680;2023-03-20T02:45:43;41.49;39.88;43.92;;
70454;Laerm;57915;47.174;14.680;2023-03-20T02:46:49;57.01;39.78;70.28;;
70454;Laerm;57915;47.174;14.680;2023-03-20T02:47:55;44.27;39.58;57.81;;
70454;Laerm;57915;47.174;14.680;2023-03-20T02:49:02;40.68;39.09;47.62;;
70454;Laerm;57915;47.174;14.680;2023-03-20T02:50:12;41.79;39.60;50.21;;
70454;Laerm;57915;47.174;14.680;2023-03-20T02:51:17;40.61;39.14;45.25;;
70454;Laerm;57915;47.174;14.680;2023-03-20T02:52:24;40.79;39.23;45.40;;
70454;Laerm;57915;47.174;14.680;2023-03-20T02:53:31;41.81;39.65;49.85;;
70454;Laerm;57915;47.174;14.680;2023-03-20T02:54:37;41.31;39.76;43.97;;
70454;Laerm;57915;47.174;14.680;2023-03-20T02:55:40;42.05;39.92;47.98;;
70454;Laerm;57915;47.174;14.680;2023-03-20T02:56:45;44.54;39.98;51.63;;
70454;Laerm;57915;47.174;14.680;2023-03-20T02:57:50;55.69;39.11;69.96;;
70454;Laerm;57915;47.174;14.680;2023-03-20T02:58:54;55.67;38.64;69.65;;
70454;Laerm;57915;47.174;14.680;2023-03-20T02:59:58;40.94;39.05;43.29;;
70454;Laerm;57915;47.174;14.680;2023-03-20T03:01:02;41.36;38.91;47.38;;
70454;Laerm;57915;47.174;14.680;2023-03-20T03:02:06;58.82;39.39;71.49;;
70454;Laerm;57915;47.174;14.680;2023-03-20T03:03:10;43.67;39.35;56.08;;
70454;Laerm;57915;47.174;14.680;2023-03-20T03:04:15;48.52;39.04;57.83;;
70454;Laerm;57915;47.174;14.680;2023-03-20T03:05:20;41.46;39.21;47.02;;
70454;Laerm;57915;47.174;14.680;2023-03-20T03:06:22;54.37;39.20;67.05;;
70454;Laerm;57915;47.174;14.680;2023-03-20T03:07:26;42.85;39.09;53.68;;
70454;Laerm;57915;47.174;14.680;2023-03-20T03:08:30;50.57;39.57;59.54;;
70454;Laerm;57915;47.174;14.680;2023-03-20T03:09:34;54.61;40.07;66.66;;
70454;Laerm;57915;47.174;14.680;2023-03-20T03:10:39;40.78;38.97;45.68;;
70454;Laerm;57915;47.174;14.680;2023-03-20T03:11:44;41.52;39.28;47.09;;
70454;Laerm;57915;47.174;14.680;2023-03-20T03:12:47;40.57;38.74;43.56;;
70454;Laerm;57915;47.174;14.680;2023-03-20T03:13:52;54.01;39.63;66.75;;
70454;Laerm;57915;47.174;14.680;2023-03-20T03:14:54;41.82;39.36;55.32;;
70454;Laerm;57915;47.174;14.680;2023-03-20T03:15:58;44.57;39.89;50.30;;
70454;Laerm;57915;47.174;14.680;2023-03-20T03:17:02;58.42;39.75;68.18;;
70454;Laerm;57915;47.174;14.680;2023-03-20T03:18:05;41.69;39.54;46.37;;
70454;Laerm;57915;47.174;14.680;2023-03-20T03:19:07;41.28;39.58;44.43;;
70454;Laerm;57915;47.174;14.680;2023-03-20T03:20:11;54.76;40.40;67.81;;
70454;Laerm;57915;47.174;14.680;2023-03-20T03:21:14;43.03;40.16;51.38;;
70454;Laerm;57915;47.174;14.680;2023-03-20T03:22:17;56.91;39.85;70.69;;
70454;Laerm;57915;47.174;14.680;2023-03-20T03:23:21;43.48;39.38;51.30;;
70454;Laerm;57915;47.174;14.680;2023-03-20T03:24:27;58.88;39.44;72.61;;
70454;Laerm;57915;47.174;14.680;2023-03-20T03:25:29;46.50;40.22;60.80;;
70454;Laerm;57915;47.174;14.680;2023-03-20T03:26:35;42.44;39.33;50.85;;
70454;Laerm;57915;47.174;14.680;2023-03-20T03:27:37;41.67;39.10;51.07;;
70454;Laerm;57915;47.174;14.680;2023-03-20T03:28:41;43.03;39.16;53.09;;
70454;Laerm;57915;47.174;14.680;2023-03-20T03:29:42;48.54;39.63;60.49;;
70454;Laerm;57915;47.174;14.680;2023-03-20T03:30:47;55.09;40.45;68.32;;
70454;Laerm;57915;47.174;14.680;2023-03-20T03:31:49;44.05;40.04;54.76;;
70454;Laerm;57915;47.174;14.680;2023-03-20T03:32:56;64.62;40.41;76.27;;
70454;Laerm;57915;47.174;14.680;2023-03-20T03:34:01;60.04;40.44;72.83;;
70454;Laerm;57915;47.174;14.680;2023-03-20T03:35:03;54.11;40.32;63.13;;
70454;Laerm;57915;47.174;14.680;2023-03-20T03:36:06;60.87;41.72;72.10;;
70454;Laerm;57915;47.174;14.680;2023-03-20T03:37:10;56.87;41.38;69.52;;
70454;Laerm;57915;47.174;14.680;2023-03-20T03:38:25;43.01;39.93;52.36;;
70454;Laerm;57915;47.174;14.680;2023-03-20T03:39:32;57.64;39.68;72.63;;
70454;Laerm;57915;47.174;14.680;2023-03-20T03:40:37;61.12;41.54;74.38;;
70454;Laerm;57915;47.174;14.680;2023-03-20T03:41:43;63.10;42.97;75.67;;
70454;Laerm;57915;47.174;14.680;2023-03-20T03:42:50;57.88;41.41;70.49;;
70454;Laerm;57915;47.174;14.680;2023-03-20T03:43:56;58.24;41.95;69.46;;
70454;Laerm;57915;47.174;14.680;2023-03-20T03:45:01;53.32;40.11;65.48;;
70454;Laerm;57915;47.174;14.680;2023-03-20T03:46:04;59.78;41.05;72.55;;
70454;Laerm;57915;47.174;14.680;2023-03-20T03:47:07;57.83;41.78;71.20;;
70454;Laerm;57915;47.174;14.680;2023-03-20T03:48:11;53.50;40.60;66.47;;
70454;Laerm;57915;47.174;14.680;2023-03-20T03:49:15;43.88;40.22;51.83;;
70454;Laerm;57915;47.174;14.680;2023-03-20T03:50:20;44.53;39.31;55.27;;
70454;Laerm;57915;47.174;14.680;2023-03-20T03:51:24;52.14;40.21;64.52;;
70454;Laerm;57915;47.174;14.680;2023-03-20T03:52:27;55.91;39.79;67.97;;
70454;Laerm;57915;47.174;14.680;2023-03-20T03:53:30;44.03;39.83;58.28;;
70454;Laerm;57915;47.174;14.680;2023-03-20T03:54:33;51.41;41.04;63.05;;
70454;Laerm;57915;47.174;14.680;2023-03-20T03:55:36;44.74;40.75;51.56;;
70454;Laerm;57915;47.174;14.680;2023-03-20T03:56:39;45.54;40.19;55.77;;
70454;Laerm;57915;47.174;14.680;2023-03-20T03:57:44;56.14;40.57;66.18;;
70454;Laerm;57915;47.174;14.680;2023-03-20T03:58:47;61.15;41.76;72.41;;
70454;Laerm;57915;47.174;14.680;2023-03-20T03:59:49;44.22;39.99;52.08;;
70454;Laerm;57915;47.174;14.680;2023-03-20T04:00:51;54.90;41.01;66.52;;
70454;Laerm;57915;47.174;14.680;2023-03-20T04:01:53;59.46;43.17;73.30;;
70454;Laerm;57915;47.174;14.680;2023-03-20T04:02:56;62.25;41.68;72.21;;
70454;Laerm;57915;47.174;14.680;2023-03-20T04:03:57;59.39;40.45;73.33;;
70454;Laerm;57915;47.174;14.680;2023-03-20T04:05:01;44.53;40.75;52.09;;
70454;Laerm;57915;47.174;14.680;2023-03-20T04:06:03;45.55;40.01;64.14;;
70454;Laerm;57915;47.174;14.680;2023-03-20T04:07:06;59.20;42.02;69.53;;
70454;Laerm;57915;47.174;14.680;2023-03-20T04:08:06;55.98;42.05;66.82;;
70454;Laerm;57915;47.174;14.680;2023-03-20T04:09:08;58.31;42.52;68.47;;
70454;Laerm;57915;47.174;14.680;2023-03-20T04:10:09;58.18;41.22;69.66;;
70454;Laerm;57915;47.174;14.680;2023-03-20T04:11:12;59.81;40.72;70.88;;
70454;Laerm;57915;47.174;14.680;2023-03-20T04:12:31;55.91;42.00;67.62;;
70454;Laerm;57915;47.174;14.680;2023-03-20T04:13:34;59.63;43.16;71.27;;
70454;Laerm;57915;47.174;14.680;2023-03-20T04:14:36;59.39;44.16;69.37;;
70454;Laerm;57915;47.174;14.680;2023-03-20T04:15:36;50.54;41.89;64.30;;
70454;Laerm;57915;47.174;14.680;2023-03-20T04:16:38;55.93;41.66;67.02;;
70454;Laerm;57915;47.174;14.680;2023-03-20T04:17:39;57.84;41.57;69.50;;
70454;Laerm;57915;47.174;14.680;2023-03-20T04:18:41;54.56;42.82;65.68;;
70454;Laerm;57915;47.174;14.680;2023-03-20T04:19:42;50.18;43.06;62.69;;
70454;Laerm;57915;47.174;14.680;2023-03-20T04:20:43;55.84;42.04;66.62;;
70454;Laerm;57915;47.174;14.680;2023-03-20T04:21:44;62.69;44.21;72.86;;
70454;Laerm;57915;47.174;14.680;2023-03-20T04:22:46;49.44;43.23;61.35;;
70454;Laerm;57915;47.174;14.680;2023-03-20T04:23:46;58.84;42.05;68.50;;
70454;Laerm;57915;47.174;14.680;2023-03-20T04:24:48;57.68;42.29;69.95;;
70454;Laerm;57915;47.174;14.680;2023-03-20T04:25:48;59.64;44.80;68.02;;
70454;Laerm;57915;47.174;14.680;2023-03-20T04:26:50;59.35;42.68;70.14;;
70454;Laerm;57915;47.174;14.680;2023-03-20T04:27:51;58.71;43.13;72.30;;
70454;Laerm;57915;47.174;14.680;2023-03-20T04:28:54;50.08;42.85;63.57;;
70454;Laerm;57915;47.174;14.680;2023-03-20T04:29:54;47.19;42.65;58.93;;
70454;Laerm;57915;47.174;14.680;2023-03-20T04:30:56;60.23;42.81;71.26;;
70454;Laerm;57915;47.174;14.680;2023-03-20T04:31:57;64.35;48.79;73.31;;
70454;Laerm;57915;47.174;14.680;2023-03-20T04:32:59;56.73;43.15;68.67;;
70454;Laerm;57915;47.174;14.680;2023-03-20T04:33:59;59.22;43.97;70.44;;
70454;Laerm;57915;47.174;14.680;2023-03-20T04:35:01;57.00;43.32;68.08;;
70454;Laerm;57915;47.174;14.680;2023-03-20T04:36:01;57.70;42.87;70.43;;
70454;Laerm;57915;47.174;14.680;2023-03-20T04:37:03;60.39;43.98;68.14;;
70454;Laerm;57915;47.174;14.680;2023-03-20T04:38:07;58.16;42.91;70.29;;
70454;Laerm;57915;47.174;14.680;2023-03-20T04:39:08;57.89;43.25;69.11;;
70454;Laerm;57915;47.174;14.680;2023-03-20T04:40:10;59.71;41.93;70.86;;
70454;Laerm;57915;47.174;14.680;2023-03-20T04:41:10;62.10;42.47;71.23;;
70454;Laerm;57915;47.174;14.680;2023-03-20T04:42:12;59.50;42.05;71.95;;
70454;Laerm;57915;47.174;14.680;2023-03-20T04:43:13;61.32;42.56;72.97;;
70454;Laerm;57915;47.174;14.680;2023-03-20T04:44:16;47.89;42.70;60.07;;
70454;Laerm;57915;47.174;14.680;2023-03-20T04:45:16;63.77;46.66;72.45;;
70454;Laerm;57915;47.174;14.680;2023-03-20T04:46:17;58.82;44.41;67.25;;
70454;Laerm;57915;47.174;14.680;2023-03-20T04:47:18;46.79;42.82;52.56;;
70454;Laerm;57915;47.174;14.680;2023-03-20T04:48:20;54.89;43.79;68.14;;
70454;Laerm;57915;47.174;14.680;2023-03-20T04:49:20;61.55;43.19;73.40;;
70454;Laerm;57915;47.174;14.680;2023-03-20T04:50:21;60.86;44.73;69.03;;
70454;Laerm;57915;47.174;14.680;2023-03-20T04:51:23;54.52;43.78;65.81;;
70454;Laerm;57915;47.174;14.680;2023-03-20T04:52:23;52.42;44.79;62.29;;
70454;Laerm;57915;47.174;14.680;2023-03-20T04:53:25;57.16;43.95;70.32;;
70454;Laerm;57915;47.174;14.680;2023-03-20T04:54:25;59.60;45.06;69.92;;
70454;Laerm;57915;47.174;14.680;2023-03-20T04:55:27;49.98;44.17;64.65;;
70454;Laerm;57915;47.174;14.680;2023-03-20T04:56:27;59.26;43.74;69.13;;
70454;Laerm;57915;47.174;14.680;2023-03-20T04:57:29;55.06;44.06;66.29;;
70454;Laerm;57915;47.174;14.680;2023-03-20T04:58:31;59.75;42.66;72.09;;
70454;Laerm;57915;47.174;14.680;2023-03-20T04:59:33;46.47;42.98;52.98;;
70454;Laerm;57915;47.174;14.680;2023-03-20T05:00:34;56.91;43.19;69.65;;
70454;Laerm;57915;47.174;14.680;2023-03-20T05:01:36;56.50;42.79;70.06;;
70454;Laerm;57915;47.174;14.680;2023-03-20T05:02:36;60.96;44.67;72.12;;
70454;Laerm;57915;47.174;14.680;2023-03-20T05:03:38;47.32;42.97;52.88;;
70454;Laerm;57915;47.174;14.680;2023-03-20T05:04:38;56.66;42.75;68.43;;
70454;Laerm;57915;47.174;14.680;2023-03-20T05:05:40;60.11;43.31;68.60;;
70454;Laerm;57915;47.174;14.680;2023-03-20T05:06:40;55.64;42.71;67.49;;
70454;Laerm;57915;47.174;14.680;2023-03-20T05:07:42;57.58;44.33;71.22;;
70454;Laerm;57915;47.174;14.680;2023-03-20T05:08:43;64.08;46.92;72.95;;
70454;Laerm;57915;47.174;14.680;2023-03-20T05:09:44;48.84;43.76;58.52;;
70454;Laerm;57915;47.174;14.680;2023-03-20T05:10:45;57.22;44.35;70.55;;
70454;Laerm;57915;47.174;14.680;2023-03-20T05:11:46;60.17;46.67;68.35;;
70454;Laerm;57915;47.174;14.680;2023-03-20T05:12:47;53.79;43.52;65.69;;
70454;Laerm;57915;47.174;14.680;2023-03-20T05:13:49;62.85;48.26;72.37;;
70454;Laerm;57915;47.174;14.680;2023-03-20T05:14:50;59.36;44.65;69.37;;
70454;Laerm;57915;47.174;14.680;2023-03-20T05:15:53;60.62;45.11;73.33;;
70454;Laerm;57915;47.174;14.680;2023-03-20T05:16:54;52.18;45.65;64.12;;
70454;Laerm;57915;47.174;14.680;2023-03-20T05:17:55;56.50;44.14;65.86;;
70454;Laerm;57915;47.174;14.680;2023-03-20T05:18:56;48.13;45.12;53.19;;
70454;Laerm;57915;47.174;14.680;2023-03-20T05:19:58;60.42;45.97;71.14;;
70454;Laerm;57915;47.174;14.680;2023-03-20T05:20:59;62.57;46.38;72.10;;
70454;Laerm;57915;47.174;14.680;2023-03-20T05:22:01;63.64;47.98;72.10;;
70454;Laerm;57915;47.174;14.680;2023-03-20T05:23:02;60.41;44.23;72.15;;
70454;Laerm;57915;47.174;14.680;2023-03-20T05:24:04;54.75;44.12;66.71;;
70454;Laerm;57915;47.174;14.680;2023-03-20T05:25:05;55.95;45.37;66.96;;
70454;Laerm;57915;47.174;14.680;2023-03-20T05:26:06;64.42;49.07;72.37;;
70454;Laerm;57915;47.174;14.680;2023-03-20T05:27:07;61.08;47.65;71.27;;
70454;Laerm;57915;47.174;14.680;2023-03-20T05:28:08;61.98;50.80;70.88;;
70454;Laerm;57915;47.174;14.680;2023-03-20T05:29:09;56.86;46.04;66.53;;
70454;Laerm;57915;47.174;14.680;2023-03-20T05:30:13;58.98;46.23;69.68;;
70454;Laerm;57915;47.174;14.680;2023-03-20T05:31:13;48.83;45.61;59.93;;
70454;Laerm;57915;47.174;14.680;2023-03-20T05:32:15;61.47;48.99;71.28;;
70454;Laerm;57915;47.174;14.680;2023-03-20T05:33:15;61.82;46.01;71.40;;
70454;Laerm;57915;47.174;14.680;2023-03-20T05:34:17;60.45;45.73;71.18;;
70454;Laerm;57915;47.174;14.680;2023-03-20T05:35:17;62.51;46.61;72.29;;
70454;Laerm;57915;47.174;14.680;2023-03-20T05:36:19;56.64;45.52;68.08;;
70454;Laerm;57915;47.174;14.680;2023-03-20T05:37:20;48.90;44.92;56.34;;
70454;Laerm;57915;47.174;14.680;2023-03-20T05:38:21;58.44;46.16;68.63;;
70454;Laerm;57915;47.174;14.680;2023-03-20T05:39:22;57.17;46.09;67.32;;
70454;Laerm;57915;47.174;14.680;2023-03-20T05:40:23;59.69;45.90;68.48;;
70454;Laerm;57915;47.174;14.680;2023-03-20T05:41:24;61.22;48.37;70.88;;
70454;Laerm;57915;47.174;14.680;2023-03-20T05:42:26;58.65;49.64;66.97;;
70454;Laerm;57915;47.174;14.680;2023-03-20T05:43:26;60.17;48.73;68.60;;
70454;Laerm;57915;47.174;14.680;2023-03-20T05:44:28;58.58;46.52;68.92;;
70454;Laerm;57915;47.174;14.680;2023-03-20T05:45:30;62.35;46.40;70.56;;
70454;Laerm;57915;47.174;14.680;2023-03-20T05:46:31;59.35;44.09;68.57;;
70454;Laerm;57915;47.174;14.680;2023-03-20T05:47:32;57.74;44.80;68.99;;
70454;Laerm;57915;47.174;14.680;2023-03-20T05:48:33;63.77;50.31;72.18;;
70454;Laerm;57915;47.174;14.680;2023-03-20T05:49:34;62.54;49.12;70.72;;
70454;Laerm;57915;47.174;14.680;2023-03-20T05:50:36;60.67;45.22;69.47;;
70454;Laerm;57915;47.174;14.680;2023-03-20T05:51:36;61.09;44.97;73.28;;
70454;Laerm;57915;47.174;14.680;2023-03-20T05:52:38;59.43;46.32;72.22;;
70454;Laerm;57915;47.174;14.680;2023-03-20T05:53:38;62.45;48.96;71.86;;
70454;Laerm;57915;47.174;14.680;2023-03-20T05:54:40;60.88;45.87;73.53;;